Time;durP1;ratioP1;P1;durP2;ratioP2;P2;SDS_P1;SDS_P2;PMS_P1;PMS_P2;Temp;Humidity;BMP_temperature;BMP_pressure;BME280_temperature;BME280_humidity;BME280_pressure;Samples;Min_cycle;Max_cycle;Signal;HPM_P1;HPM_P2
2022/01/31 00:00:46;;;;;;;22.48;5.53;;;4.40;99.90;;;;;;5073881;28;20045;-51
2022/01/31 00:03:11;;;;;;;26.48;5.60;;;4.50;99.90;;;;;;5074337;28;20048;-51
2022/01/31 00:05:37;;;;;;;26.50;6.05;;;4.40;99.90;;;;;;5074228;28;20049;-53
2022/01/31 00:08:03;;;;;;;20.20;5.43;;;4.40;99.90;;;;;;5056598;28;20110;-48
2022/01/31 00:10:30;;;;;;;21.13;5.55;;;4.40;99.90;;;;;;5074081;28;20047;-50
2022/01/31 00:13:04;;;;;;;21.50;5.28;;;4.40;99.90;;;;;;5036490;28;20110;-51
2022/01/31 00:15:31;;;;;;;19.40;5.43;;;4.40;99.90;;;;;;5089091;28;20089;-50
2022/01/31 00:17:56;;;;;;;20.27;5.90;;;4.40;99.90;;;;;;5076402;28;20032;-51
2022/01/31 00:20:22;;;;;;;20.42;5.90;;;4.40;99.90;;;;;;5069994;28;20048;-49
2022/01/31 00:22:49;;;;;;;19.35;6.05;;;4.40;99.90;;;;;;5076453;28;20039;-49
2022/01/31 00:25:15;;;;;;;22.30;6.28;;;4.50;99.90;;;;;;5085518;28;20231;-49
2022/01/31 00:27:41;;;;;;;22.75;6.25;;;4.50;99.90;;;;;;5059046;28;20132;-50
2022/01/31 00:30:07;;;;;;;21.02;6.85;;;4.50;99.90;;;;;;5073602;28;20507;-51
2022/01/31 00:32:32;;;;;;;19.77;6.10;;;4.60;99.90;;;;;;5073823;28;20044;-51
2022/01/31 00:34:58;;;;;;;21.92;6.20;;;4.60;99.90;;;;;;5066620;28;20389;-51
2022/01/31 00:37:45;;;;;;;22.17;6.65;;;4.50;99.90;;;;;;5078659;28;20096;-49
2022/01/31 00:40:12;;;;;;;19.05;6.70;;;4.60;99.90;;;;;;5055383;28;20083;-53
2022/01/31 00:42:38;;;;;;;22.38;6.28;;;4.60;99.90;;;;;;5073207;28;20040;-52
2022/01/31 00:45:25;;;;;;;19.50;6.75;;;4.60;99.90;;;;;;5073507;28;20226;-53
2022/01/31 00:48:02;;;;;;;21.40;7.18;;;4.60;99.90;;;;;;5078915;28;20089;-51
2022/01/31 00:50:29;;;;;;;18.10;6.85;;;4.60;99.90;;;;;;5093431;28;20046;-52
2022/01/31 00:52:55;;;;;;;23.08;6.72;;;4.60;99.90;;;;;;5092095;28;20040;-54
2022/01/31 00:55:21;;;;;;;24.55;7.25;;;4.60;99.90;;;;;;5078312;28;20037;-51
2022/01/31 00:57:47;;;;;;;24.40;7.63;;;4.60;99.90;;;;;;5071068;28;20059;-53
2022/01/31 01:00:15;;;;;;;21.95;7.50;;;4.70;99.90;;;;;;5071928;28;20116;-54
2022/01/31 01:02:41;;;;;;;20.60;8.10;;;4.70;99.90;;;;;;5079840;28;20032;-53
2022/01/31 01:05:07;;;;;;;22.70;7.45;;;4.70;99.90;;;;;;5093069;28;20511;-54
2022/01/31 01:07:33;;;;;;;28.33;8.63;;;4.70;99.90;;;;;;5089644;28;20044;-53
2022/01/31 01:09:58;;;;;;;17.98;8.07;;;4.70;99.90;;;;;;5082134;28;20553;-54
2022/01/31 01:12:24;;;;;;;21.48;8.70;;;4.70;99.90;;;;;;5072562;28;20077;-53
2022/01/31 01:14:50;;;;;;;31.45;9.30;;;4.70;99.90;;;;;;5072768;28;20028;-51
2022/01/31 01:17:16;;;;;;;25.50;8.60;;;4.70;99.90;;;;;;5078638;28;20040;-51
2022/01/31 01:19:43;;;;;;;23.48;8.68;;;4.70;99.90;;;;;;5073705;28;20059;-53
2022/01/31 01:22:10;;;;;;;22.10;8.43;;;4.70;99.90;;;;;;5048710;28;20084;-51
2022/01/31 01:24:36;;;;;;;30.60;9.68;;;4.60;99.90;;;;;;5054204;28;20044;-52
2022/01/31 01:27:02;;;;;;;26.38;10.23;;;4.60;99.90;;;;;;5086583;28;20051;-52
2022/01/31 01:29:27;;;;;;;24.40;10.35;;;4.50;99.90;;;;;;5091603;28;20047;-52
2022/01/31 01:31:53;;;;;;;25.17;10.13;;;4.50;99.90;;;;;;5092811;28;20039;-53
2022/01/31 01:34:21;;;;;;;27.48;11.15;;;4.50;99.90;;;;;;5092964;28;20166;-53
2022/01/31 01:36:50;;;;;;;28.85;12.00;;;4.40;99.90;;;;;;5091328;28;20040;-52
2022/01/31 01:39:15;;;;;;;27.58;11.43;;;4.40;99.90;;;;;;5082313;28;20037;-51
2022/01/31 01:41:43;;;;;;;25.23;10.82;;;4.40;99.90;;;;;;5054304;28;20539;-51
2022/01/31 01:44:09;;;;;;;26.15;11.52;;;4.30;99.90;;;;;;5060307;28;20045;-53
2022/01/31 01:46:34;;;;;;;26.08;11.93;;;4.30;99.90;;;;;;5069950;28;20037;-50
2022/01/31 01:49:00;;;;;;;23.75;11.60;;;4.20;99.90;;;;;;5052263;28;20044;-54
2022/01/31 01:51:25;;;;;;;25.58;11.75;;;4.20;99.90;;;;;;5052771;28;20037;-49
2022/01/31 01:53:51;;;;;;;30.60;12.20;;;4.20;99.90;;;;;;5061245;28;20449;-48
2022/01/31 01:56:17;;;;;;;27.83;11.98;;;4.20;99.90;;;;;;5072718;28;20106;-48
2022/01/31 01:58:44;;;;;;;25.45;10.52;;;4.20;99.90;;;;;;5092459;28;20446;-48
2022/01/31 02:01:11;;;;;;;24.40;11.73;;;4.20;99.90;;;;;;5082329;28;20084;-48
2022/01/31 02:03:39;;;;;;;23.60;11.15;;;4.20;99.90;;;;;;5068050;28;20098;-55
2022/01/31 02:06:07;;;;;;;28.25;11.63;;;4.20;99.90;;;;;;5069943;28;20086;-49
2022/01/31 02:08:40;;;;;;;21.38;10.20;;;4.20;99.90;;;;;;5082620;28;20089;-49
2022/01/31 02:11:07;;;;;;;26.70;11.27;;;4.20;99.90;;;;;;5055715;28;20072;-48
2022/01/31 02:13:35;;;;;;;20.23;9.23;;;4.20;99.90;;;;;;5071687;28;20036;-50
2022/01/31 02:16:01;;;;;;;23.52;10.73;;;4.10;99.90;;;;;;5071453;28;20424;-49
2022/01/31 02:18:29;;;;;;;24.15;10.10;;;4.20;99.90;;;;;;5067417;28;20036;-48
2022/01/31 02:20:54;;;;;;;23.35;10.85;;;4.20;99.90;;;;;;5067375;28;20041;-48
2022/01/31 02:23:21;;;;;;;19.73;9.30;;;4.10;99.90;;;;;;5069132;28;20396;-51
2022/01/31 02:25:55;;;;;;;20.17;9.50;;;4.20;99.90;;;;;;5071455;28;20047;-51
2022/01/31 02:28:23;;;;;;;24.75;9.95;;;4.20;99.90;;;;;;5053845;28;20040;-52
2022/01/31 02:30:49;;;;;;;17.35;8.50;;;4.20;99.90;;;;;;5070859;28;20037;-52
2022/01/31 02:33:15;;;;;;;13.93;7.45;;;4.20;99.90;;;;;;5071628;28;20033;-48
2022/01/31 02:35:40;;;;;;;17.15;7.80;;;4.20;99.90;;;;;;5071457;28;20137;-48
2022/01/31 02:38:06;;;;;;;17.17;8.10;;;4.30;99.90;;;;;;5070900;28;20072;-52
2022/01/31 02:40:31;;;;;;;17.77;8.23;;;4.20;99.90;;;;;;5071541;28;20404;-52
2022/01/31 02:42:57;;;;;;;15.40;7.28;;;4.20;99.90;;;;;;5071528;28;20484;-49
2022/01/31 02:45:23;;;;;;;15.13;6.35;;;4.10;99.90;;;;;;5071214;28;20041;-49
2022/01/31 02:47:55;;;;;;;14.25;6.95;;;4.10;99.90;;;;;;5070222;28;20497;-48
2022/01/31 02:50:20;;;;;;;14.90;6.88;;;4.10;99.90;;;;;;5070994;28;20037;-49
2022/01/31 02:52:49;;;;;;;14.13;7.18;;;4.10;99.90;;;;;;5071270;28;20455;-48
2022/01/31 02:55:16;;;;;;;13.43;6.78;;;4.20;99.90;;;;;;5079231;28;20516;-49
2022/01/31 03:01:37;;;;;;;13.05;6.78;;;4.10;99.90;;;;;;5035141;28;20059;-52
2022/01/31 03:04:04;;;;;;;12.40;6.65;;;4.20;99.90;;;;;;5048645;28;20429;-52
2022/01/31 03:06:29;;;;;;;13.00;6.55;;;4.20;99.90;;;;;;5055197;28;20055;-52
2022/01/31 03:08:55;;;;;;;13.43;6.63;;;4.10;99.90;;;;;;5071488;28;20048;-51
2022/01/31 03:11:21;;;;;;;12.55;6.75;;;4.20;99.90;;;;;;5051158;28;20033;-50
2022/01/31 03:13:47;;;;;;;11.00;6.80;;;4.30;99.90;;;;;;5049998;28;20041;-53
2022/01/31 03:16:12;;;;;;;14.85;6.20;;;4.30;99.90;;;;;;5049738;28;20118;-53
2022/01/31 03:18:38;;;;;;;11.35;6.55;;;4.40;99.90;;;;;;5049865;28;20095;-50
2022/01/31 03:21:03;;;;;;;11.57;6.32;;;4.50;99.90;;;;;;5062891;28;20112;-54
2022/01/31 03:23:29;;;;;;;12.68;6.47;;;4.50;99.90;;;;;;5062759;28;20040;-50
2022/01/31 03:25:54;;;;;;;18.50;6.88;;;4.60;99.90;;;;;;5063639;28;20037;-51
2022/01/31 03:28:20;;;;;;;15.25;7.05;;;4.60;99.90;;;;;;5071213;28;20078;-53
2022/01/31 03:30:46;;;;;;;15.20;7.32;;;4.70;99.90;;;;;;5069853;28;20492;-54
2022/01/31 03:33:12;;;;;;;21.83;7.43;;;4.70;99.90;;;;;;5036411;28;20037;-49
2022/01/31 03:35:37;;;;;;;23.65;7.05;;;4.80;99.90;;;;;;5070808;28;20143;-53
2022/01/31 03:38:03;;;;;;;17.17;6.60;;;4.90;99.90;;;;;;5074717;28;20041;-50
2022/01/31 03:40:28;;;;;;;15.05;6.30;;;5.00;99.90;;;;;;5074511;28;20040;-50
2022/01/31 03:42:54;;;;;;;21.27;6.53;;;5.10;99.90;;;;;;5067818;28;20041;-52
2022/01/31 03:45:20;;;;;;;20.23;6.15;;;5.10;99.90;;;;;;5053152;28;20036;-51
2022/01/31 03:47:46;;;;;;;15.98;5.43;;;5.20;99.90;;;;;;5054677;28;20049;-51
2022/01/31 03:50:17;;;;;;;15.68;4.57;;;5.30;99.90;;;;;;5072959;28;20090;-53
2022/01/31 03:52:43;;;;;;;21.83;4.25;;;5.40;99.90;;;;;;5094181;28;20044;-51
2022/01/31 03:55:13;;;;;;;20.02;4.68;;;5.40;99.90;;;;;;5110417;28;20046;-53
2022/01/31 03:57:39;;;;;;;13.57;3.85;;;5.50;99.90;;;;;;5094696;28;20514;-52
2022/01/31 04:00:10;;;;;;;22.08;4.60;;;5.70;99.90;;;;;;5094624;28;20040;-51
2022/01/31 04:02:36;;;;;;;17.02;4.05;;;5.80;99.90;;;;;;5085519;28;20049;-53
2022/01/31 04:05:02;;;;;;;21.23;3.72;;;5.80;99.90;;;;;;5074395;28;20496;-54
2022/01/31 04:07:28;;;;;;;31.15;4.03;;;5.90;99.90;;;;;;5073541;28;20048;-52
2022/01/31 04:09:53;;;;;;;20.05;3.40;;;5.90;99.90;;;;;;5074528;28;20059;-52
2022/01/31 04:12:19;;;;;;;17.17;3.42;;;5.90;99.90;;;;;;5078594;28;20040;-53
2022/01/31 04:14:45;;;;;;;20.77;3.70;;;5.90;99.90;;;;;;5093933;28;20043;-53
2022/01/31 04:17:11;;;;;;;21.77;3.20;;;6.00;99.90;;;;;;5094314;28;20043;-53
2022/01/31 04:19:38;;;;;;;20.38;3.47;;;6.00;99.90;;;;;;5085267;28;20141;-50
2022/01/31 04:22:08;;;;;;;21.30;3.30;;;6.10;99.90;;;;;;5094111;28;20039;-53
2022/01/31 04:24:34;;;;;;;16.15;2.92;;;6.10;99.90;;;;;;5094101;28;20086;-52
2022/01/31 04:27:05;;;;;;;23.92;3.20;;;6.10;99.90;;;;;;5093002;28;20400;-54
2022/01/31 04:29:38;;;;;;;22.98;3.47;;;6.10;99.90;;;;;;5093856;28;20078;-49
2022/01/31 04:32:05;;;;;;;17.58;3.25;;;6.10;99.90;;;;;;5094121;28;20052;-53
2022/01/31 04:34:31;;;;;;;19.58;2.97;;;6.10;99.90;;;;;;5074521;28;20052;-53
2022/01/31 04:36:58;;;;;;;17.42;2.83;;;6.10;99.90;;;;;;5073760;28;20074;-49
2022/01/31 04:39:24;;;;;;;22.80;3.53;;;6.10;99.90;;;;;;5087384;22;21186;-50
2022/01/31 04:41:50;;;;;;;14.05;2.95;;;6.20;99.90;;;;;;5013181;28;20038;-53
2022/01/31 04:44:16;;;;;;;19.00;2.88;;;6.00;99.90;;;;;;5013268;28;20030;-53
2022/01/31 04:46:43;;;;;;;20.85;3.45;;;6.00;99.90;;;;;;5012200;28;20108;-53
2022/01/31 04:49:09;;;;;;;25.00;3.95;;;6.00;99.90;;;;;;5013411;28;20052;-52
2022/01/31 04:51:35;;;;;;;20.83;3.25;;;5.90;99.90;;;;;;5013577;28;20081;-52
2022/01/31 04:54:00;;;;;;;19.23;2.80;;;5.80;99.90;;;;;;5013556;28;20065;-50
2022/01/31 04:56:26;;;;;;;18.17;3.03;;;5.80;99.90;;;;;;5013609;28;20034;-51
2022/01/31 04:58:51;;;;;;;15.68;2.65;;;5.80;99.90;;;;;;5013572;28;20073;-50
2022/01/31 05:01:17;;;;;;;19.13;3.10;;;5.80;99.90;;;;;;5013064;28;20501;-52
2022/01/31 05:03:45;;;;;;;17.88;2.72;;;5.80;99.90;;;;;;5013068;28;20049;-50
2022/01/31 05:06:13;;;;;;;18.15;3.60;;;5.80;99.90;;;;;;5013391;28;20041;-51
2022/01/31 05:08:39;;;;;;;22.58;3.08;;;5.90;99.90;;;;;;5013266;28;20468;-51
2022/01/31 05:11:08;;;;;;;20.23;3.20;;;5.80;99.90;;;;;;5012894;28;20514;-52
2022/01/31 05:13:33;;;;;;;22.02;3.40;;;5.80;99.90;;;;;;5013063;28;20514;-52
2022/01/31 05:15:59;;;;;;;27.90;4.00;;;5.80;99.90;;;;;;5012913;28;20068;-51
2022/01/31 05:18:24;;;;;;;23.13;3.80;;;5.70;99.90;;;;;;5012868;28;20091;-51
2022/01/31 05:20:50;;;;;;;27.40;5.32;;;5.70;99.90;;;;;;5011287;28;20041;-51
2022/01/31 05:23:15;;;;;;;22.70;3.40;;;5.70;99.90;;;;;;5012830;28;20080;-52
2022/01/31 05:25:41;;;;;;;23.88;3.65;;;5.70;99.90;;;;;;5012661;28;20076;-51
2022/01/31 05:28:07;;;;;;;14.30;2.67;;;5.70;99.90;;;;;;5013246;28;20038;-51
2022/01/31 05:30:32;;;;;;;18.48;2.67;;;5.70;99.90;;;;;;5012738;28;20073;-52
2022/01/31 05:32:58;;;;;;;21.38;2.45;;;5.70;99.90;;;;;;5012726;28;20117;-55
2022/01/31 05:35:24;;;;;;;10.38;1.75;;;5.70;99.90;;;;;;5012470;28;20050;-54
2022/01/31 05:37:49;;;;;;;11.98;1.67;;;5.60;99.90;;;;;;5012567;28;20375;-51
2022/01/31 05:40:15;;;;;;;12.45;2.47;;;5.60;99.90;;;;;;5012334;28;20053;-53
2022/01/31 05:42:40;;;;;;;7.22;1.48;;;5.50;99.90;;;;;;5012677;28;20125;-54
2022/01/31 05:45:07;;;;;;;7.82;1.67;;;5.40;99.90;;;;;;5011781;28;20068;-52
2022/01/31 05:47:33;;;;;;;13.02;1.50;;;5.40;99.90;;;;;;5012637;28;20042;-53
2022/01/31 05:49:59;;;;;;;8.00;1.40;;;5.30;99.90;;;;;;5012411;28;20410;-54
2022/01/31 05:52:25;;;;;;;11.65;1.92;;;5.30;99.90;;;;;;5012410;28;20037;-54
2022/01/31 05:54:51;;;;;;;11.50;1.58;;;5.30;99.90;;;;;;5012011;28;20037;-51
2022/01/31 05:57:17;;;;;;;12.90;2.65;;;5.20;99.90;;;;;;5012542;28;20041;-52
2022/01/31 05:59:42;;;;;;;7.35;1.58;;;5.20;99.90;;;;;;5009318;28;20521;-54
2022/01/31 06:02:08;;;;;;;10.23;1.88;;;5.20;99.90;;;;;;5010854;28;20213;-53
2022/01/31 06:04:34;;;;;;;13.35;2.00;;;5.10;99.90;;;;;;5004316;28;20038;-53
2022/01/31 06:07:00;;;;;;;14.27;1.95;;;5.10;99.90;;;;;;5012264;28;20379;-54
2022/01/31 06:09:27;;;;;;;12.07;2.08;;;5.10;99.90;;;;;;5011290;28;20049;-52
2022/01/31 06:11:53;;;;;;;16.15;2.28;;;5.10;99.90;;;;;;5008164;28;20061;-54
2022/01/31 06:14:19;;;;;;;16.88;2.10;;;5.10;99.90;;;;;;5011331;28;20490;-53
2022/01/31 06:16:45;;;;;;;22.98;2.60;;;5.10;99.90;;;;;;5012064;28;20088;-53
2022/01/31 06:19:10;;;;;;;14.18;2.45;;;5.10;99.90;;;;;;5012076;28;20038;-51
2022/01/31 06:21:36;;;;;;;10.80;2.13;;;5.20;99.90;;;;;;5011864;28;20462;-51
2022/01/31 06:24:04;;;;;;;15.27;2.35;;;5.20;99.90;;;;;;5011839;28;20050;-52
2022/01/31 06:26:30;;;;;;;21.33;2.65;;;5.20;99.90;;;;;;5011595;28;20398;-52
2022/01/31 06:28:55;;;;;;;20.23;2.33;;;5.20;99.90;;;;;;5010194;28;20544;-53
2022/01/31 06:31:21;;;;;;;12.30;2.67;;;5.30;99.90;;;;;;5011721;28;20034;-52
2022/01/31 06:33:46;;;;;;;15.43;2.50;;;5.30;99.90;;;;;;5010287;28;20482;-53
2022/01/31 06:36:12;;;;;;;21.13;3.10;;;5.30;99.90;;;;;;5008682;28;20038;-53
2022/01/31 06:38:41;;;;;;;20.70;2.40;;;5.40;99.90;;;;;;5011239;28;20406;-53
2022/01/31 06:41:11;;;;;;;19.38;2.38;;;5.40;99.90;;;;;;5011593;28;20501;-52
2022/01/31 06:43:36;;;;;;;19.30;3.00;;;5.40;99.90;;;;;;5011793;28;20042;-53
2022/01/31 06:46:02;;;;;;;15.52;1.90;;;5.40;99.90;;;;;;5011502;28;20046;-49
2022/01/31 06:48:27;;;;;;;12.63;1.70;;;5.50;99.90;;;;;;5011247;28;20099;-50
2022/01/31 06:50:53;;;;;;;14.82;3.13;;;5.50;99.90;;;;;;5011203;28;20450;-52
2022/01/31 06:53:25;;;;;;;16.30;2.17;;;5.50;99.90;;;;;;4999559;28;20610;-52
2022/01/31 06:55:51;;;;;;;13.75;1.90;;;5.50;99.90;;;;;;5006810;28;20035;-53
2022/01/31 06:58:17;;;;;;;8.75;1.50;;;5.40;99.90;;;;;;4999209;28;20042;-52
2022/01/31 07:00:42;;;;;;;8.23;1.55;;;5.40;99.90;;;;;;5002301;28;20056;-52
2022/01/31 07:03:10;;;;;;;8.07;1.50;;;5.40;99.90;;;;;;4999700;28;20050;-51
2022/01/31 07:05:36;;;;;;;9.77;1.60;;;5.40;99.90;;;;;;5005424;28;20038;-51
2022/01/31 07:08:02;;;;;;;11.38;1.90;;;5.30;99.90;;;;;;5000731;28;20179;-54
2022/01/31 07:10:28;;;;;;;12.18;1.63;;;5.30;99.90;;;;;;4997537;28;20438;-52
2022/01/31 07:12:56;;;;;;;11.02;1.60;;;5.30;99.90;;;;;;5015205;28;20030;-53
2022/01/31 07:15:21;;;;;;;14.95;2.08;;;5.30;99.90;;;;;;5013861;28;20042;-53
2022/01/31 07:17:47;;;;;;;6.38;1.20;;;5.30;99.90;;;;;;5015596;28;20390;-53
2022/01/31 07:20:34;;;;;;;9.30;1.83;;;5.30;99.90;;;;;;5014027;28;20034;-54
2022/01/31 07:23:03;;;;;;;15.65;2.30;;;5.30;99.90;;;;;;5005215;28;20478;-53
2022/01/31 07:25:35;;;;;;;13.18;2.00;;;5.30;99.90;;;;;;5014202;28;20038;-53
2022/01/31 07:28:03;;;;;;;9.65;2.03;;;5.30;99.90;;;;;;5014788;28;20429;-51
2022/01/31 07:30:29;;;;;;;14.70;2.40;;;5.30;99.90;;;;;;5014729;28;20046;-54
2022/01/31 07:32:54;;;;;;;8.05;1.63;;;5.30;99.90;;;;;;5014155;28;20375;-53
2022/01/31 07:35:20;;;;;;;10.60;2.00;;;5.30;99.90;;;;;;5014419;28;20073;-53
2022/01/31 07:37:46;;;;;;;12.60;2.08;;;5.40;99.90;;;;;;5014843;28;20034;-53
2022/01/31 07:40:12;;;;;;;18.65;3.05;;;5.40;99.90;;;;;;5014776;28;20417;-53
2022/01/31 07:42:38;;;;;;;10.10;2.10;;;5.40;99.90;;;;;;5010643;28;20052;-52
2022/01/31 07:45:04;;;;;;;17.90;2.42;;;5.40;99.90;;;;;;5004967;28;20726;-53
2022/01/31 07:47:29;;;;;;;20.70;2.35;;;5.40;99.90;;;;;;5013494;28;20111;-54
2022/01/31 07:49:55;;;;;;;18.27;2.63;;;5.50;99.90;;;;;;5006596;28;20507;-54
2022/01/31 07:52:21;;;;;;;16.27;2.50;;;5.40;99.90;;;;;;5002304;28;20042;-53
2022/01/31 07:54:46;;;;;;;14.70;2.72;;;5.50;99.90;;;;;;5004032;28;20064;-52
2022/01/31 07:57:12;;;;;;;15.20;2.15;;;5.50;99.90;;;;;;4999906;28;20038;-53
2022/01/31 07:59:38;;;;;;;16.75;2.75;;;5.50;99.90;;;;;;5006177;28;20545;-53
2022/01/31 08:02:03;;;;;;;18.58;2.70;;;5.60;99.90;;;;;;5007845;28;20037;-53
2022/01/31 08:04:29;;;;;;;23.17;2.58;;;5.60;99.90;;;;;;5001103;28;20132;-51
2022/01/31 08:06:55;;;;;;;15.88;2.40;;;5.60;99.90;;;;;;4999378;28;20038;-54
2022/01/31 08:09:20;;;;;;;14.90;2.90;;;5.60;99.90;;;;;;5003461;28;20038;-51
2022/01/31 08:11:46;;;;;;;11.82;2.58;;;5.60;99.90;;;;;;4999695;28;20034;-53
2022/01/31 08:14:16;;;;;;;19.23;2.53;;;5.70;99.90;;;;;;5007062;28;20030;-53
2022/01/31 08:16:42;;;;;;;20.77;3.22;;;5.70;99.90;;;;;;4996612;28;20046;-51
2022/01/31 08:19:08;;;;;;;20.63;3.17;;;5.70;99.90;;;;;;5007011;28;20049;-54
2022/01/31 08:21:35;;;;;;;20.45;3.42;;;5.80;99.90;;;;;;4999618;28;20383;-53
2022/01/31 08:24:01;;;;;;;18.80;3.10;;;5.80;99.90;;;;;;4997950;28;20379;-53
2022/01/31 08:26:27;;;;;;;16.38;3.28;;;5.80;99.90;;;;;;5019027;28;20137;-54
2022/01/31 08:28:59;;;;;;;24.95;3.28;;;5.80;99.90;;;;;;4994725;28;20038;-52
2022/01/31 08:31:33;;;;;;;22.38;3.70;;;5.90;99.90;;;;;;4997255;28;20046;-51
2022/01/31 08:36:26;;;;;;;26.52;5.00;;;6.00;99.90;;;;;;4998526;28;20046;-53
2022/01/31 08:38:53;;;;;;;17.73;2.38;;;6.00;99.90;;;;;;5002348;28;20030;-51
2022/01/31 08:41:19;;;;;;;16.20;2.78;;;6.00;99.90;;;;;;5003321;28;20061;-51
2022/01/31 08:43:44;;;;;;;20.95;2.80;;;6.10;99.90;;;;;;5006419;28;20061;-50
2022/01/31 08:46:12;;;;;;;16.98;2.50;;;6.10;99.90;;;;;;5007467;28;20088;-50
2022/01/31 08:48:39;;;;;;;17.08;2.47;;;6.10;99.90;;;;;;4998904;28;20113;-50
2022/01/31 08:51:06;;;;;;;18.20;2.40;;;6.10;99.90;;;;;;5004223;28;20296;-51
2022/01/31 08:53:33;;;;;;;13.35;2.53;;;6.10;99.90;;;;;;5000220;28;20034;-51
2022/01/31 08:56:03;;;;;;;15.52;2.78;;;6.10;99.90;;;;;;5009951;28;20101;-51
2022/01/31 08:58:29;;;;;;;16.20;2.92;;;6.10;99.90;;;;;;4998658;28;20065;-51
2022/01/31 09:01:01;;;;;;;13.73;2.40;;;6.20;99.90;;;;;;5001056;28;20050;-50
2022/01/31 09:06:00;;;;;;;13.75;2.17;;;6.20;99.90;;;;;;4999838;28;20117;-51
2022/01/31 09:08:26;;;;;;;13.93;2.22;;;6.20;99.90;;;;;;4998606;28;20414;-52
2022/01/31 09:10:52;;;;;;;12.20;2.80;;;6.20;99.90;;;;;;4998569;28;20038;-52
2022/01/31 09:13:18;;;;;;;17.52;2.05;;;6.20;99.90;;;;;;5002069;28;20092;-51
2022/01/31 09:15:44;;;;;;;11.18;1.80;;;6.20;99.90;;;;;;5004175;28;20617;-51
2022/01/31 09:18:09;;;;;;;15.25;3.20;;;6.20;99.90;;;;;;5012996;28;20050;-51
2022/01/31 09:20:35;;;;;;;14.57;2.53;;;6.30;99.90;;;;;;5010547;28;20045;-51
2022/01/31 09:23:02;;;;;;;13.23;1.70;;;6.30;99.90;;;;;;5005916;28;20409;-54
2022/01/31 09:25:29;;;;;;;13.50;1.98;;;6.30;99.90;;;;;;5012861;28;20449;-51
2022/01/31 09:27:54;;;;;;;11.45;1.70;;;6.30;99.90;;;;;;5012697;28;20092;-51
2022/01/31 09:30:22;;;;;;;8.30;1.60;;;6.30;99.90;;;;;;4999157;28;20033;-51
2022/01/31 09:32:48;;;;;;;6.97;1.58;;;6.30;99.90;;;;;;5002073;28;20035;-50
2022/01/31 09:35:14;;;;;;;11.13;1.63;;;6.40;99.90;;;;;;5002683;28;20034;-51
2022/01/31 09:37:39;;;;;;;10.30;1.60;;;6.40;99.90;;;;;;5008530;28;20144;-51
2022/01/31 09:40:06;;;;;;;8.90;1.40;;;6.50;99.90;;;;;;5000723;28;20516;-51
2022/01/31 09:42:52;;;;;;;11.60;1.92;;;6.50;99.90;;;;;;5005285;28;20038;-51
2022/01/31 09:45:34;;;;;;;15.07;1.70;;;6.50;99.90;;;;;;5010282;28;20037;-51
2022/01/31 09:50:27;;;;;;;11.82;1.80;;;6.50;99.90;;;;;;5004018;28;20423;-50
2022/01/31 09:52:53;;;;;;;14.10;2.20;;;6.60;99.90;;;;;;5007691;28;20034;-51
2022/01/31 09:55:20;;;;;;;12.15;1.75;;;6.50;99.90;;;;;;5010042;28;20084;-51
2022/01/31 09:57:45;;;;;;;12.65;1.85;;;6.50;99.90;;;;;;5011299;28;20061;-52
2022/01/31 10:00:11;;;;;;;6.97;1.65;;;6.50;99.90;;;;;;5012011;28;20506;-53
2022/01/31 10:02:37;;;;;;;11.00;1.80;;;6.40;99.90;;;;;;5011498;28;20046;-54
2022/01/31 10:05:03;;;;;;;14.32;1.85;;;6.50;99.90;;;;;;5007621;28;20070;-54
2022/01/31 10:07:46;;;;;;;11.20;1.70;;;6.50;99.90;;;;;;5007577;28;20151;-54
2022/01/31 10:10:22;;;;;;;8.18;1.60;;;6.60;99.90;;;;;;5006404;28;20088;-54
2022/01/31 10:18:08;;;;;;;8.75;1.60;;;6.60;99.90;;;;;;4995716;28;20042;-51
2022/01/31 10:20:35;;;;;;;11.00;1.60;;;6.70;99.90;;;;;;5008491;28;20132;-51
2022/01/31 10:23:13;;;;;;;11.90;1.67;;;6.70;99.90;;;;;;5011884;28;20100;-51
2022/01/31 10:25:39;;;;;;;10.80;1.40;;;6.80;99.90;;;;;;5011236;28;20104;-52
2022/01/31 10:28:19;;;;;;;8.07;1.20;;;6.80;99.90;;;;;;5011783;28;20048;-51
2022/01/31 10:30:46;;;;;;;12.15;1.58;;;6.80;99.90;;;;;;5011901;28;20073;-53
2022/01/31 10:33:13;;;;;;;8.30;1.95;;;6.80;99.90;;;;;;5011776;28;20116;-50
2022/01/31 10:35:40;;;;;;;6.50;1.27;;;6.90;99.90;;;;;;5011523;28;20783;-51
2022/01/31 10:38:18;;;;;;;9.90;1.33;;;6.90;99.90;;;;;;5011649;28;20502;-51
2022/01/31 10:44:00;;;;;;;5.80;1.17;;;7.00;99.90;;;;;;5004646;28;20497;-52
2022/01/31 10:50:44;;;;;;;6.72;1.50;;;7.00;99.90;;;;;;5010602;28;20121;-48
2022/01/31 10:52:25;;;;;;;7.05;1.20;;;7.10;99.90;;;;;;4992122;28;20053;-51
2022/01/31 10:54:53;;;;;;;12.13;1.85;;;7.20;99.90;;;;;;4991090;28;20053;-52
2022/01/31 10:57:21;;;;;;;11.60;1.67;;;7.20;99.90;;;;;;4992139;28;20039;-51
2022/01/31 10:59:49;;;;;;;15.82;2.00;;;7.30;99.90;;;;;;4990333;28;20034;-52
2022/01/31 11:02:20;;;;;;;16.67;2.47;;;7.40;99.90;;;;;;4990525;28;20042;-49
2022/01/31 11:04:47;;;;;;;15.52;1.90;;;7.40;99.90;;;;;;4991743;28;20042;-52
2022/01/31 11:07:18;;;;;;;15.25;2.30;;;7.50;99.90;;;;;;4990932;28;20042;-50
2022/01/31 11:09:49;;;;;;;16.35;2.35;;;7.50;99.90;;;;;;4989999;28;20841;-51
2022/01/31 11:12:15;;;;;;;16.58;2.55;;;7.50;99.90;;;;;;4974024;28;20509;-53
2022/01/31 11:14:43;;;;;;;14.90;2.22;;;7.50;99.90;;;;;;4988774;28;20045;-53
2022/01/31 11:17:11;;;;;;;15.55;2.20;;;7.50;99.90;;;;;;4973833;28;20097;-52
2022/01/31 11:19:39;;;;;;;9.38;1.70;;;7.50;99.90;;;;;;4991599;28;20053;-51
2022/01/31 11:22:08;;;;;;;17.08;2.05;;;7.50;99.90;;;;;;4990811;28;20086;-50
2022/01/31 11:24:45;;;;;;;11.65;1.80;;;7.60;99.90;;;;;;4986508;28;20043;-54
2022/01/31 11:27:22;;;;;;;16.77;2.78;;;7.60;99.90;;;;;;4982984;28;20041;-54
2022/01/31 11:29:54;;;;;;;14.23;2.30;;;7.60;99.90;;;;;;4977484;28;20034;-51
2022/01/31 11:32:20;;;;;;;15.25;1.95;;;7.60;99.90;;;;;;4982781;28;20040;-49
2022/01/31 11:34:46;;;;;;;13.60;1.77;;;7.50;99.90;;;;;;4982964;28;20042;-51
2022/01/31 11:37:15;;;;;;;11.25;1.70;;;7.50;99.90;;;;;;4978669;28;20084;-52
2022/01/31 11:39:44;;;;;;;11.85;2.05;;;7.40;99.90;;;;;;4979881;28;20035;-49
2022/01/31 11:42:11;;;;;;;11.10;1.50;;;7.40;99.90;;;;;;4980545;28;20067;-51
2022/01/31 11:44:50;;;;;;;11.85;1.60;;;7.50;99.90;;;;;;4983046;28;20049;-52
2022/01/31 11:47:21;;;;;;;5.20;1.20;;;7.50;99.90;;;;;;4986338;28;20049;-49
2022/01/31 11:49:56;;;;;;;5.93;1.20;;;7.50;99.90;;;;;;4984497;28;20391;-52
2022/01/31 11:52:24;;;;;;;7.80;1.08;;;7.40;99.90;;;;;;4986933;28;20086;-52
2022/01/31 11:54:57;;;;;;;6.03;1.35;;;7.40;99.90;;;;;;4981611;28;20049;-49
2022/01/31 11:57:34;;;;;;;5.82;1.17;;;7.30;99.90;;;;;;4992258;28;20446;-49
2022/01/31 12:00:11;;;;;;;2.55;0.85;;;7.30;99.90;;;;;;4972159;28;20043;-52
2022/01/31 12:02:54;;;;;;;6.28;1.77;;;7.30;99.90;;;;;;4986882;28;20399;-49
2022/01/31 12:05:27;;;;;;;8.35;1.38;;;7.30;99.90;;;;;;4983363;28;20038;-52
2022/01/31 12:08:03;;;;;;;;;;;7.30;99.90;;;;;;4987379;28;21500;-52
2022/01/31 12:10:37;;;;;;;2.38;0.80;;;7.30;99.90;;;;;;4975960;28;19984;-49
2022/01/31 12:13:35;;;;;;;6.90;1.17;;;7.30;99.90;;;;;;4980577;28;20038;-52
2022/01/31 12:18:54;;;;;;;8.57;1.17;;;7.40;99.90;;;;;;4977528;28;20047;-53
2022/01/31 12:24:42;;;;;;;10.65;1.70;;;7.50;99.90;;;;;;4983445;28;20093;-52
2022/01/31 12:27:20;;;;;;;15.73;2.25;;;7.50;99.90;;;;;;4976274;28;20569;-50
2022/01/31 12:29:52;;;;;;;10.82;1.98;;;7.60;99.90;;;;;;4977980;28;20117;-52
2022/01/31 12:32:36;;;;;;;14.65;2.50;;;7.60;99.90;;;;;;4980054;28;20058;-52
2022/01/31 12:35:01;;;;;;;14.43;2.45;;;7.60;99.90;;;;;;4973936;28;20498;-50
2022/01/31 12:37:38;;;;;;;11.75;2.15;;;7.70;99.90;;;;;;4980179;28;20090;-52
2022/01/31 12:40:29;;;;;;;14.35;2.20;;;7.70;99.90;;;;;;4974498;28;20085;-49
2022/01/31 12:45:31;;;;;;;19.45;2.78;;;7.80;99.90;;;;;;4974269;28;20059;-53
2022/01/31 12:48:26;;;;;;;16.33;3.22;;;7.80;99.90;;;;;;4981889;28;20117;-50
2022/01/31 12:50:56;;;;;;;14.80;2.50;;;8.00;99.90;;;;;;4981398;28;20070;-52
2022/01/31 12:55:56;;;;;;;25.45;3.17;;;8.10;99.90;;;;;;4991130;28;20049;-50
2022/01/31 12:58:32;;;;;;;13.85;2.35;;;8.10;99.90;;;;;;4985708;28;20074;-52
2022/01/31 13:00:57;;;;;;;16.90;2.78;;;8.10;99.90;;;;;;4980205;28;20051;-52
2022/01/31 13:03:35;;;;;;;16.75;2.53;;;8.10;99.90;;;;;;4981217;28;21432;-53
2022/01/31 13:06:00;;;;;;;15.43;2.70;;;8.10;99.90;;;;;;4990895;28;20042;-53
2022/01/31 13:08:26;;;;;;;19.27;2.78;;;8.10;99.90;;;;;;5000820;28;20042;-50
2022/01/31 13:10:53;;;;;;;12.90;2.60;;;8.00;99.90;;;;;;4980019;28;20053;-50
2022/01/31 13:13:32;;;;;;;15.30;2.15;;;8.00;99.90;;;;;;4991992;28;20053;-51
2022/01/31 13:16:10;;;;;;;16.45;1.85;;;8.00;99.90;;;;;;4993346;28;20034;-52
2022/01/31 13:18:35;;;;;;;12.43;2.08;;;7.90;99.90;;;;;;4976117;28;20142;-52
2022/01/31 13:21:04;;;;;;;11.40;2.08;;;7.90;99.90;;;;;;4993815;28;20499;-52
2022/01/31 13:23:31;;;;;;;15.02;2.03;;;8.00;99.90;;;;;;4991543;28;20518;-52
2022/01/31 13:26:05;;;;;;;8.50;2.00;;;8.00;99.90;;;;;;4992735;28;20050;-50